createdAt,value
2022-11-30T00:01:16.300Z,20.30
2022-11-30T00:03:45.010Z,19.80
2022-11-30T00:06:14.862Z,25.70
2022-11-30T00:08:44.615Z,21.77
2022-11-30T00:11:14.451Z,19.80
2022-11-30T00:13:42.915Z,25.20
2022-11-30T00:16:11.621Z,19.83
2022-11-30T00:18:40.114Z,27.37
2022-11-30T00:21:11.616Z,21.03
2022-11-30T00:23:41.313Z,23.80
2022-11-30T00:26:12.901Z,23.67
2022-11-30T00:28:41.768Z,25.10
2022-11-30T00:31:13.138Z,23.37
2022-11-30T00:33:41.542Z,22.70
2022-11-30T00:36:12.579Z,23.17
2022-11-30T00:38:40.852Z,26.20
2022-11-30T00:41:11.036Z,23.60
2022-11-30T00:43:39.377Z,26.30
2022-11-30T00:46:09.184Z,26.17
2022-11-30T00:48:37.399Z,24.27
2022-11-30T00:51:05.860Z,26.23
2022-11-30T00:53:33.881Z,26.83
2022-11-30T00:56:02.314Z,29.13
2022-11-30T00:58:31.669Z,27.27
2022-11-30T01:00:59.853Z,28.80
2022-11-30T01:03:28.024Z,24.93
2022-11-30T01:05:56.108Z,24.60
2022-11-30T01:08:26.521Z,29.20
2022-11-30T01:10:57.781Z,23.33
2022-11-30T01:13:25.924Z,23.37
2022-11-30T01:15:55.290Z,26.67
2022-11-30T01:18:23.395Z,26.30
2022-11-30T01:20:51.382Z,28.17
2022-11-30T01:23:19.372Z,26.13
2022-11-30T01:25:55.729Z,23.40
2022-11-30T01:28:23.718Z,25.43
2022-11-30T01:30:59.280Z,26.57
2022-11-30T01:33:27.609Z,25.10
2022-11-30T01:36:03.444Z,26.43
2022-11-30T01:38:34.018Z,23.37
2022-11-30T01:41:02.277Z,27.00
2022-11-30T01:43:42.094Z,26.13
2022-11-30T01:46:23.486Z,26.87
2022-11-30T01:48:58.067Z,25.87
2022-11-30T01:51:29.433Z,25.43
2022-11-30T01:53:57.622Z,21.13
2022-11-30T01:56:25.856Z,24.70
2022-11-30T01:58:54.107Z,23.33
2022-11-30T02:01:23.819Z,25.37
2022-11-30T02:04:00.017Z,22.47
2022-11-30T02:06:28.088Z,23.27
2022-11-30T02:08:56.642Z,24.13
2022-11-30T02:11:28.378Z,29.87
2022-11-30T02:14:13.586Z,26.83
2022-11-30T02:16:54.028Z,24.20
2022-11-30T02:19:49.743Z,32.60
2022-11-30T02:22:29.458Z,28.97
2022-11-30T02:25:08.347Z,24.40
2022-11-30T02:27:51.604Z,30.93
2022-11-30T02:30:23.012Z,34.97
2022-11-30T02:32:57.990Z,27.80
2022-11-30T02:35:30.185Z,24.63
2022-11-30T02:37:59.708Z,29.03
2022-11-30T02:40:28.385Z,31.50
2022-11-30T02:42:59.021Z,34.40
2022-11-30T02:45:34.772Z,29.93
2022-11-30T02:48:09.357Z,41.13
2022-11-30T02:50:42.105Z,34.50
2022-11-30T02:53:10.988Z,38.80
2022-11-30T02:55:39.054Z,36.43
2022-11-30T02:58:07.344Z,38.23
2022-11-30T03:00:36.739Z,41.37
2022-11-30T03:03:05.122Z,34.03
2022-11-30T03:05:33.830Z,31.80
2022-11-30T03:08:01.874Z,36.43
2022-11-30T03:10:29.989Z,40.60
2022-11-30T03:12:59.321Z,35.43
2022-11-30T03:15:28.246Z,34.00
2022-11-30T03:17:57.619Z,28.10
2022-11-30T03:20:25.693Z,37.87
2022-11-30T03:22:53.705Z,40.63
2022-11-30T03:25:21.745Z,34.53
2022-11-30T03:27:49.803Z,33.10
2022-11-30T03:30:17.976Z,32.93
2022-11-30T03:32:45.983Z,36.57
2022-11-30T03:35:15.565Z,30.93
2022-11-30T03:37:43.590Z,35.47
2022-11-30T03:40:12.811Z,32.00
2022-11-30T03:42:41.206Z,33.87
2022-11-30T03:45:09.699Z,37.13
2022-11-30T03:47:38.285Z,31.07
2022-11-30T03:50:07.658Z,31.93
2022-11-30T03:52:37.301Z,28.63
2022-11-30T03:55:05.895Z,29.83
2022-11-30T03:57:34.360Z,32.87
2022-11-30T04:00:02.339Z,32.37
2022-11-30T04:02:30.327Z,35.00
2022-11-30T04:04:58.437Z,29.40
2022-11-30T04:07:26.457Z,31.83
2022-11-30T04:09:56.097Z,32.93
2022-11-30T04:12:24.158Z,30.17
2022-11-30T04:14:52.435Z,31.33
2022-11-30T04:17:20.424Z,33.20
2022-11-30T04:19:48.490Z,29.67
2022-11-30T04:22:16.486Z,29.43
2022-11-30T04:24:44.961Z,27.83
2022-11-30T04:27:14.738Z,32.90
2022-11-30T04:29:42.776Z,30.87
2022-11-30T04:32:11.107Z,34.17
2022-11-30T04:34:39.163Z,37.93
2022-11-30T04:37:07.521Z,24.43
2022-11-30T04:39:35.884Z,29.13
2022-11-30T04:42:04.068Z,30.00
2022-11-30T04:44:33.413Z,32.83
2022-11-30T04:47:01.470Z,29.43
2022-11-30T04:49:29.984Z,27.73
2022-11-30T04:51:58.131Z,30.27
2022-11-30T04:54:26.185Z,30.50
2022-11-30T04:56:54.240Z,34.70
2022-11-30T04:59:22.246Z,34.50
2022-11-30T05:01:51.939Z,29.70
2022-11-30T05:04:20.096Z,34.23
2022-11-30T05:06:48.283Z,29.60
2022-11-30T05:09:16.352Z,36.13
2022-11-30T05:11:44.428Z,35.50
2022-11-30T05:14:12.424Z,37.90
2022-11-30T05:16:40.397Z,35.67
2022-11-30T05:19:10.087Z,46.13
2022-11-30T05:21:41.320Z,34.83
2022-11-30T05:24:13.956Z,39.23
2022-11-30T05:26:42.257Z,32.83
2022-11-30T05:29:12.204Z,36.23
2022-11-30T05:31:41.096Z,37.63
2022-11-30T05:34:10.540Z,31.57
2022-11-30T05:36:38.867Z,34.33
2022-11-30T05:39:07.332Z,30.50
2022-11-30T05:41:35.574Z,34.80
2022-11-30T05:44:04.682Z,38.97
2022-11-30T05:46:37.071Z,31.97
2022-11-30T05:49:08.149Z,30.57
2022-11-30T05:51:38.207Z,28.53
2022-11-30T05:54:06.402Z,29.30
2022-11-30T05:56:34.857Z,37.13
2022-11-30T05:59:02.976Z,33.17
2022-11-30T06:01:31.284Z,30.33
2022-11-30T06:03:59.254Z,34.37
2022-11-30T06:06:29.230Z,31.03
2022-11-30T06:08:58.644Z,40.97
2022-11-30T06:11:26.946Z,30.87
2022-11-30T06:13:55.028Z,33.63
2022-11-30T06:16:23.053Z,36.37
2022-11-30T06:18:51.156Z,33.43
2022-11-30T06:21:24.100Z,29.40
2022-11-30T06:23:52.847Z,32.90
2022-11-30T06:26:22.420Z,38.20
2022-11-30T06:28:50.466Z,33.70
2022-11-30T06:31:18.843Z,40.43
2022-11-30T06:33:46.996Z,34.50
2022-11-30T06:36:15.025Z,33.73
2022-11-30T06:38:43.122Z,41.83
2022-11-30T06:41:12.588Z,37.70
2022-11-30T06:43:42.382Z,40.33
2022-11-30T06:46:11.271Z,39.60
2022-11-30T06:48:39.570Z,33.00
2022-11-30T06:51:08.678Z,42.37
2022-11-30T06:53:37.077Z,41.07
2022-11-30T06:56:10.531Z,34.03
2022-11-30T06:58:39.462Z,41.87
2022-11-30T07:01:10.071Z,37.07
2022-11-30T07:03:38.361Z,42.67
2022-11-30T07:06:09.525Z,35.77
2022-11-30T07:08:38.591Z,35.87
2022-11-30T07:11:07.602Z,35.87
2022-11-30T07:13:35.979Z,33.37
2022-11-30T07:16:06.016Z,34.10
2022-11-30T07:18:35.635Z,37.13
2022-11-30T07:21:05.236Z,44.50
2022-11-30T07:23:55.801Z,38.13
2022-11-30T07:26:25.011Z,37.47
2022-11-30T07:28:57.954Z,40.97
2022-11-30T07:31:27.922Z,34.97
2022-11-30T07:33:58.427Z,36.27
2022-11-30T07:36:27.841Z,40.83
2022-11-30T07:38:57.028Z,33.10
2022-11-30T07:41:25.273Z,36.10
2022-11-30T07:43:53.234Z,32.47
2022-11-30T07:46:21.538Z,35.77
2022-11-30T07:48:49.746Z,42.70
2022-11-30T07:51:20.922Z,37.67
2022-11-30T07:53:49.112Z,35.83
2022-11-30T07:56:19.260Z,36.13
2022-11-30T07:58:47.328Z,35.87
2022-11-30T08:01:17.632Z,34.27
2022-11-30T08:03:46.299Z,31.63
2022-11-30T08:06:15.625Z,34.43
2022-11-30T08:08:46.541Z,33.80
2022-11-30T08:11:16.672Z,31.47
2022-11-30T08:13:45.369Z,33.70
2022-11-30T08:16:15.860Z,34.03
2022-11-30T08:18:44.355Z,39.43
2022-11-30T08:21:14.373Z,29.90
2022-11-30T08:23:45.786Z,32.77
2022-11-30T08:26:15.579Z,32.47
2022-11-30T08:28:44.593Z,38.60
2022-11-30T08:31:14.335Z,36.57
2022-11-30T08:33:42.583Z,43.33
2022-11-30T08:36:12.840Z,52.63
2022-11-30T08:38:42.412Z,60.27
2022-11-30T08:41:14.555Z,53.03
2022-11-30T08:43:43.040Z,44.33
2022-11-30T08:46:42.376Z,54.77
2022-11-30T08:49:20.287Z,82.27
2022-11-30T08:54:39.125Z,56.33
2022-11-30T08:57:08.691Z,60.83
2022-11-30T08:59:36.689Z,54.40
2022-11-30T09:02:06.042Z,66.27
2022-11-30T09:04:34.187Z,60.23
2022-11-30T09:07:02.384Z,67.07
2022-11-30T09:09:30.879Z,65.63
2022-11-30T09:11:58.871Z,61.10
2022-11-30T09:14:28.273Z,61.10
2022-11-30T09:16:56.656Z,60.87
2022-11-30T09:19:27.115Z,62.53
2022-11-30T09:21:55.424Z,58.47
2022-11-30T09:24:23.479Z,56.10
2022-11-30T09:26:51.434Z,51.77
2022-11-30T09:29:19.535Z,53.43
2022-11-30T09:31:49.389Z,51.37
2022-11-30T09:34:17.407Z,57.90
2022-11-30T09:36:45.705Z,58.40
2022-11-30T09:39:13.986Z,50.27
2022-11-30T09:42:17.411Z,51.33
2022-11-30T09:44:53.376Z,46.70
2022-11-30T09:47:45.163Z,52.03
2022-11-30T09:50:16.283Z,49.97
2022-11-30T09:52:48.075Z,58.83
2022-11-30T09:55:23.432Z,54.43
2022-11-30T09:57:55.161Z,50.57
2022-11-30T10:00:24.929Z,59.80
2022-11-30T10:02:57.228Z,52.90
2022-11-30T10:05:29.836Z,52.40
2022-11-30T10:08:22.407Z,50.10
2022-11-30T10:10:59.995Z,52.77
2022-11-30T10:13:43.902Z,60.67
2022-11-30T10:16:20.213Z,57.67
2022-11-30T10:19:00.464Z,53.13
2022-11-30T10:21:44.397Z,46.07
2022-11-30T10:24:23.318Z,60.90
2022-11-30T10:26:55.651Z,50.00
2022-11-30T10:29:30.964Z,50.03
2022-11-30T10:32:00.633Z,53.57
2022-11-30T10:34:35.606Z,44.00
2022-11-30T10:37:11.197Z,39.63
2022-11-30T10:39:44.830Z,48.13
2022-11-30T10:42:17.449Z,49.60
2022-11-30T10:44:53.684Z,44.97
2022-11-30T10:47:26.663Z,47.30
2022-11-30T10:49:56.167Z,45.17
2022-11-30T10:52:28.122Z,44.33
2022-11-30T10:55:03.768Z,50.03
2022-11-30T10:57:33.677Z,58.00
2022-11-30T11:00:06.576Z,49.63
2022-11-30T11:02:38.756Z,50.17
2022-11-30T11:05:17.491Z,51.93
2022-11-30T11:07:53.090Z,45.67
2022-11-30T11:10:24.566Z,53.93
2022-11-30T11:12:55.152Z,54.17
2022-11-30T11:15:25.272Z,53.40
2022-11-30T11:17:54.686Z,54.27
2022-11-30T11:20:36.106Z,53.97
2022-11-30T11:23:05.537Z,48.43
2022-11-30T11:25:35.727Z,52.10
2022-11-30T11:28:13.788Z,44.93
2022-11-30T11:30:42.151Z,47.33
2022-11-30T11:33:22.782Z,42.87
2022-11-30T11:35:53.410Z,48.37
2022-11-30T11:38:27.157Z,50.60
2022-11-30T11:41:02.397Z,48.83
2022-11-30T11:43:32.670Z,46.33
2022-11-30T11:46:03.723Z,50.00
2022-11-30T11:48:36.109Z,44.23
2022-11-30T11:51:08.250Z,48.50
2022-11-30T11:53:47.456Z,40.67
2022-11-30T11:56:22.101Z,45.80
2022-11-30T11:58:56.253Z,50.83
2022-11-30T12:01:41.686Z,60.33
2022-11-30T12:04:45.653Z,47.37
2022-11-30T12:07:28.529Z,52.93
2022-11-30T12:10:16.678Z,61.17
2022-11-30T12:12:55.262Z,56.57
2022-11-30T12:15:32.127Z,47.83
2022-11-30T12:18:15.940Z,45.37
2022-11-30T12:20:56.820Z,47.23
2022-11-30T12:23:46.950Z,44.17
2022-11-30T12:26:26.851Z,50.43
2022-11-30T12:29:08.043Z,52.97
2022-11-30T12:31:47.276Z,56.20
2022-11-30T12:34:20.448Z,52.53
2022-11-30T12:36:57.682Z,52.63
2022-11-30T12:39:42.548Z,57.77
2022-11-30T12:42:16.531Z,53.27
2022-11-30T12:44:53.923Z,53.33
2022-11-30T12:47:40.155Z,62.97
2022-11-30T12:50:25.651Z,55.70
2022-11-30T12:53:03.050Z,54.13
2022-11-30T12:55:39.815Z,56.53
2022-11-30T12:58:17.646Z,52.97
2022-11-30T13:01:00.957Z,56.27
2022-11-30T13:03:40.811Z,57.37
2022-11-30T13:06:12.780Z,56.47
2022-11-30T13:08:52.560Z,51.80
2022-11-30T13:11:28.080Z,48.07
2022-11-30T13:13:58.636Z,48.00
2022-11-30T13:16:27.570Z,49.63
2022-11-30T13:19:03.000Z,44.03
2022-11-30T13:21:34.267Z,54.73
2022-11-30T13:24:09.920Z,52.37
2022-11-30T13:26:45.015Z,51.83
2022-11-30T13:29:28.179Z,48.37
2022-11-30T13:32:05.283Z,52.77
2022-11-30T13:34:34.043Z,40.83
2022-11-30T13:37:04.812Z,60.33
2022-11-30T13:39:49.598Z,44.97
2022-11-30T13:42:38.367Z,47.30
2022-11-30T13:45:32.629Z,49.03
2022-11-30T13:48:16.695Z,51.20
2022-11-30T13:50:48.896Z,54.07
2022-11-30T13:53:27.352Z,47.40
2022-11-30T13:56:33.823Z,48.33
2022-11-30T13:59:36.179Z,42.07
2022-11-30T14:05:39.423Z,47.60
2022-11-30T14:08:31.311Z,46.57
2022-11-30T14:11:32.731Z,47.07
2022-11-30T14:14:45.486Z,60.33
2022-11-30T14:21:27.401Z,98.27
2022-11-30T16:25:07.322Z,42.73
2022-11-30T16:27:35.557Z,42.53
2022-11-30T16:30:03.534Z,45.40
2022-11-30T16:32:31.534Z,45.00
2022-11-30T16:34:59.610Z,40.10
2022-11-30T16:37:29.299Z,41.07
2022-11-30T16:39:57.227Z,42.07
2022-11-30T16:42:25.295Z,47.07
2022-11-30T16:44:53.576Z,40.93
2022-11-30T16:47:21.945Z,42.57
2022-11-30T16:49:50.152Z,43.83
2022-11-30T16:52:18.519Z,43.90
2022-11-30T16:54:47.881Z,38.00
2022-11-30T16:57:16.212Z,40.27
2022-11-30T16:59:44.280Z,40.13
2022-11-30T17:02:19.607Z,41.00
2022-11-30T17:04:48.106Z,42.73
2022-11-30T17:07:16.364Z,42.13
2022-11-30T17:09:44.751Z,40.20
2022-11-30T17:12:14.093Z,41.83
2022-11-30T17:14:42.364Z,48.53
2022-11-30T17:17:10.668Z,38.10
2022-11-30T17:19:38.930Z,39.83
2022-11-30T17:22:07.340Z,38.67
2022-11-30T17:24:35.726Z,45.13
2022-11-30T17:27:05.532Z,39.73
2022-11-30T17:29:34.931Z,46.27
2022-11-30T17:32:03.318Z,44.90
2022-11-30T17:34:32.001Z,39.63
2022-11-30T17:37:02.909Z,44.87
2022-11-30T17:39:31.168Z,39.10
2022-11-30T17:41:59.304Z,41.27
2022-11-30T17:44:27.330Z,41.93
2022-11-30T17:46:56.809Z,46.77
2022-11-30T17:49:24.874Z,39.40
2022-11-30T17:51:52.834Z,41.13
2022-11-30T17:54:21.201Z,40.43
2022-11-30T17:56:49.525Z,52.83
2022-11-30T17:59:17.515Z,42.07
2022-11-30T18:01:46.342Z,40.93
2022-11-30T18:04:16.115Z,51.00
2022-11-30T18:06:44.371Z,41.47
2022-11-30T18:09:12.445Z,38.50
2022-11-30T18:11:40.570Z,43.63
2022-11-30T18:14:08.865Z,39.30
2022-11-30T18:16:38.665Z,38.90
2022-11-30T18:19:11.924Z,44.67
2022-11-30T18:21:44.211Z,36.57
2022-11-30T18:24:12.787Z,42.87
2022-11-30T18:26:41.068Z,41.23
2022-11-30T18:29:09.686Z,42.53
2022-11-30T18:31:37.683Z,40.53
2022-11-30T18:34:07.171Z,39.80
2022-11-30T18:36:35.792Z,37.33
2022-11-30T18:39:05.526Z,44.33
2022-11-30T18:41:33.531Z,36.77
2022-11-30T18:44:01.645Z,35.37
2022-11-30T18:46:29.885Z,38.97
2022-11-30T18:48:59.155Z,40.90
2022-11-30T18:51:29.193Z,35.70
2022-11-30T18:53:59.357Z,39.70
2022-11-30T18:56:30.312Z,41.63
2022-11-30T18:58:59.935Z,39.67
2022-11-30T19:01:33.811Z,37.00
2022-11-30T19:04:03.121Z,38.50
2022-11-30T19:06:33.233Z,40.33
2022-11-30T19:09:02.821Z,36.60
2022-11-30T19:11:33.798Z,39.17
2022-11-30T19:14:02.515Z,43.60
2022-11-30T19:16:31.711Z,39.80
2022-11-30T19:19:01.583Z,37.33
2022-11-30T19:21:30.163Z,40.97
2022-11-30T19:23:59.159Z,38.37
2022-11-30T19:26:28.940Z,43.53
2022-11-30T19:28:59.088Z,38.80
2022-11-30T19:31:27.986Z,37.70
2022-11-30T19:33:56.991Z,38.70
2022-11-30T19:36:26.819Z,41.37
2022-11-30T19:38:54.907Z,38.63
2022-11-30T19:41:23.068Z,37.93
2022-11-30T19:43:59.771Z,38.57
2022-11-30T19:46:34.005Z,36.50
2022-11-30T19:49:02.676Z,39.77
2022-11-30T19:51:32.351Z,38.40
2022-11-30T19:54:00.881Z,36.63
2022-11-30T19:56:31.197Z,36.17
2022-11-30T19:59:04.469Z,41.57
2022-11-30T20:01:35.798Z,40.73
2022-11-30T20:04:04.858Z,43.07
2022-11-30T20:06:37.333Z,42.40
2022-11-30T20:09:06.183Z,40.10
2022-11-30T20:11:34.663Z,39.53
2022-11-30T20:14:03.084Z,38.20
2022-11-30T20:16:31.456Z,47.40
2022-11-30T20:19:02.657Z,51.67
2022-11-30T20:21:32.526Z,48.63
2022-11-30T20:24:02.532Z,44.83
2022-11-30T20:26:32.186Z,46.63
2022-11-30T20:29:02.073Z,50.57
2022-11-30T20:31:31.240Z,43.83
2022-11-30T20:34:01.119Z,44.97
2022-11-30T20:36:29.167Z,35.90
2022-11-30T20:38:57.171Z,43.80
2022-11-30T20:41:25.763Z,40.07
2022-11-30T20:43:54.454Z,34.83
2022-11-30T20:46:25.524Z,40.67
2022-11-30T20:48:54.558Z,32.97
2022-11-30T20:51:31.333Z,43.57
2022-11-30T20:54:01.151Z,32.63
2022-11-30T20:56:29.207Z,36.60
2022-11-30T20:58:57.485Z,33.30
2022-11-30T21:01:25.803Z,30.60
2022-11-30T21:03:53.873Z,30.73
2022-11-30T21:06:23.392Z,39.27
2022-11-30T21:08:51.453Z,32.67
2022-11-30T21:11:22.039Z,32.17
2022-11-30T21:13:51.899Z,39.33
2022-11-30T21:16:27.226Z,35.37
2022-11-30T21:18:57.879Z,33.83
2022-11-30T21:21:30.411Z,37.90
2022-11-30T21:24:00.000Z,40.13
2022-11-30T21:26:30.592Z,36.57
2022-11-30T21:29:01.905Z,35.27
2022-11-30T21:31:30.421Z,36.57
2022-11-30T21:33:58.553Z,36.97
2022-11-30T21:36:28.641Z,35.97
2022-11-30T21:39:04.621Z,39.07
2022-11-30T21:41:34.644Z,41.37
2022-11-30T21:44:03.138Z,36.87
2022-11-30T21:46:31.637Z,39.30
2022-11-30T21:48:59.908Z,36.83
2022-11-30T21:51:31.566Z,49.27
2022-11-30T21:54:01.973Z,39.50
2022-11-30T21:56:32.316Z,41.23
2022-11-30T21:59:00.899Z,42.30
2022-11-30T22:01:31.076Z,44.70
2022-11-30T22:04:01.722Z,38.03
2022-11-30T22:06:33.299Z,38.83
2022-11-30T22:09:07.706Z,41.40
2022-11-30T22:11:38.740Z,39.97
2022-11-30T22:14:07.906Z,39.30
2022-11-30T22:16:36.736Z,46.07
2022-11-30T22:19:07.301Z,44.57
2022-11-30T22:21:36.989Z,50.63
2022-11-30T22:24:06.898Z,46.50
2022-11-30T22:26:38.214Z,44.13
2022-11-30T22:29:07.793Z,46.17
2022-11-30T22:31:39.338Z,40.10
2022-11-30T22:34:09.368Z,37.23
2022-11-30T22:36:40.667Z,57.80
2022-11-30T22:39:11.915Z,44.87
2022-11-30T22:41:40.891Z,46.17
2022-11-30T22:44:09.267Z,46.47
2022-11-30T22:46:38.806Z,39.23
2022-11-30T22:49:09.454Z,54.93
2022-11-30T22:51:39.256Z,42.67
2022-11-30T22:54:07.918Z,44.43
2022-11-30T22:56:37.773Z,44.03
2022-11-30T22:59:06.638Z,48.43
2022-11-30T23:01:36.366Z,56.13
2022-11-30T23:04:06.521Z,42.97
2022-11-30T23:06:35.726Z,53.23
2022-11-30T23:09:06.911Z,43.33
2022-11-30T23:11:35.436Z,42.33
2022-11-30T23:14:06.205Z,46.10
2022-11-30T23:16:34.350Z,40.93
2022-11-30T23:19:02.639Z,38.40
2022-11-30T23:21:38.885Z,42.63
2022-11-30T23:24:20.172Z,34.97
2022-11-30T23:26:48.445Z,36.47
2022-11-30T23:29:17.500Z,36.10
2022-11-30T23:31:46.521Z,43.87
2022-11-30T23:34:16.532Z,44.20
2022-11-30T23:36:44.857Z,44.10
2022-11-30T23:39:16.648Z,50.00
2022-11-30T23:41:44.928Z,47.93
2022-11-30T23:44:13.526Z,41.03
2022-11-30T23:46:41.924Z,42.57
2022-11-30T23:49:09.951Z,38.77
2022-11-30T23:51:37.912Z,40.77
2022-11-30T23:54:06.285Z,37.93
2022-11-30T23:56:35.692Z,40.63
2022-11-30T23:59:03.720Z,42.23
